sensor_id;sensor_type;location;lat;lon;timestamp;pressure;altitude;pressure_sealevel;temperature;humidity
25080;BME280;13071;48.868;9.996;2023-08-31T00:01:00;95932.19;;;13.91;100.00
25080;BME280;13071;48.868;9.996;2023-08-31T00:03:29;95929.53;;;13.98;100.00
25080;BME280;13071;48.868;9.996;2023-08-31T00:05:55;95931.00;;;13.92;100.00
25080;BME280;13071;48.868;9.996;2023-08-31T00:08:22;95917.38;;;14.18;100.00
25080;BME280;13071;48.868;9.996;2023-08-31T00:10:56;95910.16;;;14.03;100.00
25080;BME280;13071;48.868;9.996;2023-08-31T00:13:23;95911.72;;;14.01;100.00
25080;BME280;13071;48.868;9.996;2023-08-31T00:15:54;95903.91;;;13.99;100.00
25080;BME280;13071;48.868;9.996;2023-08-31T00:18:22;95912.38;;;13.94;100.00
25080;BME280;13071;48.868;9.996;2023-08-31T00:20:49;95909.19;;;13.89;100.00
25080;BME280;13071;48.868;9.996;2023-08-31T00:23:16;95910.41;;;13.91;100.00
25080;BME280;13071;48.868;9.996;2023-08-31T00:25:42;95918.22;;;13.96;100.00
25080;BME280;13071;48.868;9.996;2023-08-31T00:28:10;95925.88;;;13.87;100.00
25080;BME280;13071;48.868;9.996;2023-08-31T00:30:37;95926.63;;;13.84;100.00
25080;BME280;13071;48.868;9.996;2023-08-31T00:33:04;95915.91;;;13.95;100.00
25080;BME280;13071;48.868;9.996;2023-08-31T00:35:33;95917.50;;;13.99;100.00
25080;BME280;13071;48.868;9.996;2023-08-31T00:37:59;95919.75;;;13.94;100.00
25080;BME280;13071;48.868;9.996;2023-08-31T00:40:27;95930.00;;;13.77;100.00
25080;BME280;13071;48.868;9.996;2023-08-31T00:42:58;95941.31;;;13.79;100.00
25080;BME280;13071;48.868;9.996;2023-08-31T00:45:27;95940.91;;;13.77;100.00
25080;BME280;13071;48.868;9.996;2023-08-31T00:47:54;95944.09;;;13.83;100.00
25080;BME280;13071;48.868;9.996;2023-08-31T00:50:22;95948.81;;;13.86;100.00
25080;BME280;13071;48.868;9.996;2023-08-31T00:52:49;95940.56;;;13.82;100.00
25080;BME280;13071;48.868;9.996;2023-08-31T00:55:16;95950.16;;;13.73;100.00
25080;BME280;13071;48.868;9.996;2023-08-31T00:57:43;95938.00;;;13.67;100.00
25080;BME280;13071;48.868;9.996;2023-08-31T01:00:11;95939.53;;;13.64;100.00
25080;BME280;13071;48.868;9.996;2023-08-31T01:02:50;95950.00;;;13.62;100.00
25080;BME280;13071;48.868;9.996;2023-08-31T01:05:31;95939.97;;;13.66;100.00
25080;BME280;13071;48.868;9.996;2023-08-31T01:08:06;95945.59;;;13.54;100.00
25080;BME280;13071;48.868;9.996;2023-08-31T01:10:39;95944.81;;;13.54;100.00
25080;BME280;13071;48.868;9.996;2023-08-31T01:13:12;95945.47;;;13.47;100.00
25080;BME280;13071;48.868;9.996;2023-08-31T01:15:42;95949.50;;;13.57;100.00
25080;BME280;13071;48.868;9.996;2023-08-31T01:18:11;95949.16;;;13.58;100.00
25080;BME280;13071;48.868;9.996;2023-08-31T01:20:46;95951.91;;;13.62;100.00
25080;BME280;13071;48.868;9.996;2023-08-31T01:23:19;95952.88;;;13.47;100.00
25080;BME280;13071;48.868;9.996;2023-08-31T01:25:48;95960.25;;;13.46;100.00
25080;BME280;13071;48.868;9.996;2023-08-31T01:28:15;95966.47;;;13.47;100.00
25080;BME280;13071;48.868;9.996;2023-08-31T01:30:42;95965.91;;;13.37;100.00
25080;BME280;13071;48.868;9.996;2023-08-31T01:33:08;95959.34;;;13.16;100.00
25080;BME280;13071;48.868;9.996;2023-08-31T01:35:41;95956.88;;;13.30;100.00
25080;BME280;13071;48.868;9.996;2023-08-31T01:38:10;95957.47;;;13.20;100.00
25080;BME280;13071;48.868;9.996;2023-08-31T01:40:42;95951.97;;;13.16;100.00
25080;BME280;13071;48.868;9.996;2023-08-31T01:43:12;95965.66;;;13.01;100.00
25080;BME280;13071;48.868;9.996;2023-08-31T01:45:40;95954.00;;;13.00;100.00
25080;BME280;13071;48.868;9.996;2023-08-31T01:48:08;95950.66;;;12.87;100.00
25080;BME280;13071;48.868;9.996;2023-08-31T01:50:34;95958.38;;;12.85;100.00
25080;BME280;13071;48.868;9.996;2023-08-31T01:53:01;95953.75;;;12.86;100.00
25080;BME280;13071;48.868;9.996;2023-08-31T01:55:28;95956.59;;;12.74;100.00
25080;BME280;13071;48.868;9.996;2023-08-31T01:57:54;95958.06;;;12.68;100.00
25080;BME280;13071;48.868;9.996;2023-08-31T02:00:22;95959.31;;;12.74;100.00
25080;BME280;13071;48.868;9.996;2023-08-31T02:02:49;95967.13;;;12.75;100.00
25080;BME280;13071;48.868;9.996;2023-08-31T02:05:16;95961.19;;;12.70;100.00
25080;BME280;13071;48.868;9.996;2023-08-31T02:07:42;95970.84;;;12.67;100.00
25080;BME280;13071;48.868;9.996;2023-08-31T02:10:09;95982.63;;;12.75;100.00
25080;BME280;13071;48.868;9.996;2023-08-31T02:12:36;95984.47;;;12.71;100.00
25080;BME280;13071;48.868;9.996;2023-08-31T02:15:04;95981.13;;;12.77;100.00
25080;BME280;13071;48.868;9.996;2023-08-31T02:17:33;95991.03;;;12.70;100.00
25080;BME280;13071;48.868;9.996;2023-08-31T02:20:00;95989.75;;;12.64;100.00
25080;BME280;13071;48.868;9.996;2023-08-31T02:22:29;95989.75;;;12.64;100.00
25080;BME280;13071;48.868;9.996;2023-08-31T02:24:56;95991.50;;;12.72;100.00
25080;BME280;13071;48.868;9.996;2023-08-31T02:27:23;95993.81;;;12.73;100.00
25080;BME280;13071;48.868;9.996;2023-08-31T02:29:50;95997.41;;;12.58;100.00
25080;BME280;13071;48.868;9.996;2023-08-31T02:32:16;95996.94;;;12.52;100.00
25080;BME280;13071;48.868;9.996;2023-08-31T02:34:44;96000.13;;;12.58;100.00
25080;BME280;13071;48.868;9.996;2023-08-31T02:37:11;96003.84;;;12.69;100.00
25080;BME280;13071;48.868;9.996;2023-08-31T02:39:37;96004.50;;;12.63;100.00
25080;BME280;13071;48.868;9.996;2023-08-31T02:42:05;96002.81;;;12.58;100.00
25080;BME280;13071;48.868;9.996;2023-08-31T02:44:33;96000.84;;;12.55;100.00
25080;BME280;13071;48.868;9.996;2023-08-31T02:46:59;95994.50;;;12.67;100.00
25080;BME280;13071;48.868;9.996;2023-08-31T02:49:26;95999.25;;;12.73;100.00
25080;BME280;13071;48.868;9.996;2023-08-31T02:51:54;95997.31;;;12.74;100.00
25080;BME280;13071;48.868;9.996;2023-08-31T02:54:21;96001.50;;;12.68;100.00
25080;BME280;13071;48.868;9.996;2023-08-31T02:56:47;95991.91;;;12.54;100.00
25080;BME280;13071;48.868;9.996;2023-08-31T02:59:14;95998.00;;;12.67;100.00
25080;BME280;13071;48.868;9.996;2023-08-31T03:01:42;95985.34;;;12.55;100.00
25080;BME280;13071;48.868;9.996;2023-08-31T03:04:11;95993.44;;;12.52;100.00
25080;BME280;13071;48.868;9.996;2023-08-31T03:06:38;95994.13;;;12.49;100.00
25080;BME280;13071;48.868;9.996;2023-08-31T03:09:06;95995.06;;;12.57;100.00
25080;BME280;13071;48.868;9.996;2023-08-31T03:11:33;95991.28;;;12.61;100.00
25080;BME280;13071;48.868;9.996;2023-08-31T03:13:59;95999.66;;;12.52;100.00
25080;BME280;13071;48.868;9.996;2023-08-31T03:16:26;95995.00;;;12.53;100.00
25080;BME280;13071;48.868;9.996;2023-08-31T03:18:52;96002.13;;;12.61;100.00
25080;BME280;13071;48.868;9.996;2023-08-31T03:21:19;95989.84;;;12.67;100.00
25080;BME280;13071;48.868;9.996;2023-08-31T03:23:46;95983.13;;;12.61;100.00
25080;BME280;13071;48.868;9.996;2023-08-31T03:26:14;95988.63;;;12.65;100.00
25080;BME280;13071;48.868;9.996;2023-08-31T03:28:40;96000.50;;;12.57;100.00
25080;BME280;13071;48.868;9.996;2023-08-31T03:31:07;95997.00;;;12.56;100.00
25080;BME280;13071;48.868;9.996;2023-08-31T03:33:34;95997.06;;;12.60;100.00
25080;BME280;13071;48.868;9.996;2023-08-31T03:36:00;96007.50;;;12.58;100.00
25080;BME280;13071;48.868;9.996;2023-08-31T03:38:29;96010.50;;;12.52;100.00
25080;BME280;13071;48.868;9.996;2023-08-31T03:40:57;96014.41;;;12.55;100.00
25080;BME280;13071;48.868;9.996;2023-08-31T03:43:25;96019.06;;;12.54;100.00
25080;BME280;13071;48.868;9.996;2023-08-31T03:45:54;96015.19;;;12.55;100.00
25080;BME280;13071;48.868;9.996;2023-08-31T03:48:22;96007.00;;;12.52;100.00
25080;BME280;13071;48.868;9.996;2023-08-31T03:50:49;96017.91;;;12.55;100.00
25080;BME280;13071;48.868;9.996;2023-08-31T03:53:16;96020.63;;;12.55;100.00
25080;BME280;13071;48.868;9.996;2023-08-31T03:55:43;96017.84;;;12.52;100.00
25080;BME280;13071;48.868;9.996;2023-08-31T03:58:09;96024.84;;;12.53;100.00
25080;BME280;13071;48.868;9.996;2023-08-31T04:00:38;96036.75;;;12.48;100.00
25080;BME280;13071;48.868;9.996;2023-08-31T04:03:05;96037.19;;;12.50;100.00
25080;BME280;13071;48.868;9.996;2023-08-31T04:05:32;96050.31;;;12.48;100.00
25080;BME280;13071;48.868;9.996;2023-08-31T04:07:59;96046.25;;;12.58;100.00
25080;BME280;13071;48.868;9.996;2023-08-31T04:10:26;96043.84;;;12.53;100.00
25080;BME280;13071;48.868;9.996;2023-08-31T04:12:55;96056.81;;;12.44;100.00
25080;BME280;13071;48.868;9.996;2023-08-31T04:15:21;96057.19;;;12.42;100.00
25080;BME280;13071;48.868;9.996;2023-08-31T04:17:49;96044.72;;;12.57;100.00
25080;BME280;13071;48.868;9.996;2023-08-31T04:20:16;96055.06;;;12.71;100.00
25080;BME280;13071;48.868;9.996;2023-08-31T04:22:42;96068.34;;;12.57;100.00
25080;BME280;13071;48.868;9.996;2023-08-31T04:25:09;96058.19;;;12.53;100.00
25080;BME280;13071;48.868;9.996;2023-08-31T04:27:36;96056.53;;;12.49;100.00
25080;BME280;13071;48.868;9.996;2023-08-31T04:30:05;96054.63;;;12.49;100.00
25080;BME280;13071;48.868;9.996;2023-08-31T04:32:33;96054.91;;;12.44;100.00
25080;BME280;13071;48.868;9.996;2023-08-31T04:35:02;96068.47;;;12.44;100.00
25080;BME280;13071;48.868;9.996;2023-08-31T04:37:29;96064.75;;;12.33;100.00
25080;BME280;13071;48.868;9.996;2023-08-31T04:39:55;96076.47;;;12.37;100.00
25080;BME280;13071;48.868;9.996;2023-08-31T04:42:23;96070.25;;;12.37;100.00
25080;BME280;13071;48.868;9.996;2023-08-31T04:44:49;96077.94;;;12.35;100.00
25080;BME280;13071;48.868;9.996;2023-08-31T04:47:16;96079.88;;;12.34;100.00
25080;BME280;13071;48.868;9.996;2023-08-31T04:49:43;96072.31;;;12.43;100.00
25080;BME280;13071;48.868;9.996;2023-08-31T04:52:11;96078.91;;;12.42;100.00
25080;BME280;13071;48.868;9.996;2023-08-31T04:54:38;96072.75;;;12.45;100.00
25080;BME280;13071;48.868;9.996;2023-08-31T04:57:04;96071.56;;;12.43;100.00
25080;BME280;13071;48.868;9.996;2023-08-31T04:59:32;96070.91;;;12.49;100.00
25080;BME280;13071;48.868;9.996;2023-08-31T05:01:59;96070.22;;;12.52;100.00
25080;BME280;13071;48.868;9.996;2023-08-31T05:04:25;96066.84;;;12.59;100.00
25080;BME280;13071;48.868;9.996;2023-08-31T05:06:53;96082.63;;;12.53;100.00
25080;BME280;13071;48.868;9.996;2023-08-31T05:09:24;96084.19;;;12.54;100.00
25080;BME280;13071;48.868;9.996;2023-08-31T05:11:57;96094.44;;;12.61;100.00
25080;BME280;13071;48.868;9.996;2023-08-31T05:14:24;96095.78;;;12.71;100.00
25080;BME280;13071;48.868;9.996;2023-08-31T05:16:50;96100.94;;;12.76;100.00
25080;BME280;13071;48.868;9.996;2023-08-31T05:19:17;96105.75;;;12.82;100.00
25080;BME280;13071;48.868;9.996;2023-08-31T05:21:44;96106.53;;;13.02;100.00
25080;BME280;13071;48.868;9.996;2023-08-31T05:24:10;96105.25;;;12.96;100.00
25080;BME280;13071;48.868;9.996;2023-08-31T05:26:38;96111.03;;;12.94;100.00
25080;BME280;13071;48.868;9.996;2023-08-31T05:29:05;96106.03;;;12.96;100.00
25080;BME280;13071;48.868;9.996;2023-08-31T05:31:32;96104.22;;;13.04;100.00
25080;BME280;13071;48.868;9.996;2023-08-31T05:33:58;96110.81;;;13.03;100.00
25080;BME280;13071;48.868;9.996;2023-08-31T05:36:25;96104.41;;;13.11;100.00
25080;BME280;13071;48.868;9.996;2023-08-31T05:38:51;96111.25;;;13.05;100.00
25080;BME280;13071;48.868;9.996;2023-08-31T05:41:18;96109.38;;;13.09;100.00
25080;BME280;13071;48.868;9.996;2023-08-31T05:43:46;96112.91;;;13.29;100.00
25080;BME280;13071;48.868;9.996;2023-08-31T05:46:13;96111.13;;;13.36;100.00
25080;BME280;13071;48.868;9.996;2023-08-31T05:48:39;96109.53;;;13.35;100.00
25080;BME280;13071;48.868;9.996;2023-08-31T05:51:06;96109.66;;;13.43;100.00
25080;BME280;13071;48.868;9.996;2023-08-31T05:53:33;96111.81;;;13.33;100.00
25080;BME280;13071;48.868;9.996;2023-08-31T05:56:00;96109.44;;;13.51;100.00
25080;BME280;13071;48.868;9.996;2023-08-31T05:58:30;96115.72;;;13.55;100.00
25080;BME280;13071;48.868;9.996;2023-08-31T06:00:58;96124.69;;;13.56;100.00
25080;BME280;13071;48.868;9.996;2023-08-31T06:03:25;96124.50;;;13.68;100.00
25080;BME280;13071;48.868;9.996;2023-08-31T06:05:53;96133.63;;;13.56;100.00
25080;BME280;13071;48.868;9.996;2023-08-31T06:08:19;96146.84;;;13.58;100.00
25080;BME280;13071;48.868;9.996;2023-08-31T06:10:46;96149.13;;;13.56;100.00
25080;BME280;13071;48.868;9.996;2023-08-31T06:13:13;96143.81;;;13.63;100.00
25080;BME280;13071;48.868;9.996;2023-08-31T06:15:39;96151.28;;;13.66;100.00
25080;BME280;13071;48.868;9.996;2023-08-31T06:18:07;96156.34;;;13.67;100.00
25080;BME280;13071;48.868;9.996;2023-08-31T06:20:34;96151.34;;;13.69;100.00
25080;BME280;13071;48.868;9.996;2023-08-31T06:23:00;96147.22;;;13.79;100.00
25080;BME280;13071;48.868;9.996;2023-08-31T06:25:27;96148.97;;;13.68;100.00
25080;BME280;13071;48.868;9.996;2023-08-31T06:27:53;96145.44;;;13.67;100.00
25080;BME280;13071;48.868;9.996;2023-08-31T06:30:20;96153.69;;;13.71;100.00
25080;BME280;13071;48.868;9.996;2023-08-31T06:32:47;96157.38;;;13.82;100.00
25080;BME280;13071;48.868;9.996;2023-08-31T06:35:16;96157.81;;;13.84;100.00
25080;BME280;13071;48.868;9.996;2023-08-31T06:37:45;96159.88;;;13.91;100.00
25080;BME280;13071;48.868;9.996;2023-08-31T06:40:12;96162.28;;;13.96;100.00
25080;BME280;13071;48.868;9.996;2023-08-31T06:42:39;96156.06;;;14.18;100.00
25080;BME280;13071;48.868;9.996;2023-08-31T06:45:07;96161.78;;;14.36;100.00
25080;BME280;13071;48.868;9.996;2023-08-31T06:47:34;96157.69;;;14.45;100.00
25080;BME280;13071;48.868;9.996;2023-08-31T06:50:01;96159.47;;;14.60;100.00
25080;BME280;13071;48.868;9.996;2023-08-31T06:52:29;96169.41;;;14.76;100.00
25080;BME280;13071;48.868;9.996;2023-08-31T06:54:56;96160.13;;;14.80;100.00
25080;BME280;13071;48.868;9.996;2023-08-31T06:57:23;96168.09;;;14.92;100.00
25080;BME280;13071;48.868;9.996;2023-08-31T06:59:50;96168.22;;;14.99;100.00
25080;BME280;13071;48.868;9.996;2023-08-31T07:02:17;96171.75;;;15.03;99.98
25080;BME280;13071;48.868;9.996;2023-08-31T07:04:44;96173.97;;;14.94;99.60
25080;BME280;13071;48.868;9.996;2023-08-31T07:07:11;96186.34;;;14.88;100.00
25080;BME280;13071;48.868;9.996;2023-08-31T07:09:41;96176.47;;;15.06;100.00
25080;BME280;13071;48.868;9.996;2023-08-31T07:12:08;96185.00;;;15.05;100.00
25080;BME280;13071;48.868;9.996;2023-08-31T07:14:34;96189.00;;;15.14;100.00
25080;BME280;13071;48.868;9.996;2023-08-31T07:17:01;96189.47;;;15.20;100.00
25080;BME280;13071;48.868;9.996;2023-08-31T07:19:28;96199.75;;;15.30;99.49
25080;BME280;13071;48.868;9.996;2023-08-31T07:21:54;96195.16;;;15.68;97.20
25080;BME280;13071;48.868;9.996;2023-08-31T07:24:22;96201.25;;;15.54;97.23
25080;BME280;13071;48.868;9.996;2023-08-31T07:26:50;96201.41;;;15.68;96.77
25080;BME280;13071;48.868;9.996;2023-08-31T07:29:17;96202.75;;;15.85;93.63
25080;BME280;13071;48.868;9.996;2023-08-31T07:31:43;96197.28;;;15.85;92.38
25080;BME280;13071;48.868;9.996;2023-08-31T07:34:10;96189.19;;;15.92;93.15
25080;BME280;13071;48.868;9.996;2023-08-31T07:36:37;96198.50;;;15.87;94.44
25080;BME280;13071;48.868;9.996;2023-08-31T07:39:05;96213.59;;;16.18;91.85
25080;BME280;13071;48.868;9.996;2023-08-31T07:41:32;96221.03;;;16.18;90.80
25080;BME280;13071;48.868;9.996;2023-08-31T07:44:00;96212.75;;;16.07;89.04
25080;BME280;13071;48.868;9.996;2023-08-31T07:46:28;96199.44;;;16.02;89.59
25080;BME280;13071;48.868;9.996;2023-08-31T07:48:54;96204.84;;;15.98;89.98
25080;BME280;13071;48.868;9.996;2023-08-31T07:51:21;96211.97;;;16.10;90.77
25080;BME280;13071;48.868;9.996;2023-08-31T07:53:48;96218.69;;;16.20;91.20
25080;BME280;13071;48.868;9.996;2023-08-31T07:56:15;96215.88;;;16.53;90.98
25080;BME280;13071;48.868;9.996;2023-08-31T07:58:41;96217.84;;;16.56;86.38
25080;BME280;13071;48.868;9.996;2023-08-31T08:01:09;96218.00;;;16.30;84.66
25080;BME280;13071;48.868;9.996;2023-08-31T08:03:36;96235.66;;;16.39;83.79
25080;BME280;13071;48.868;9.996;2023-08-31T08:06:02;96232.47;;;16.30;84.81
25080;BME280;13071;48.868;9.996;2023-08-31T08:08:29;96237.41;;;16.18;84.38
25080;BME280;13071;48.868;9.996;2023-08-31T08:10:56;96248.25;;;16.11;82.76
25080;BME280;13071;48.868;9.996;2023-08-31T08:13:23;96246.84;;;15.90;79.63
25080;BME280;13071;48.868;9.996;2023-08-31T08:15:49;96255.72;;;15.80;82.19
25080;BME280;13071;48.868;9.996;2023-08-31T08:18:17;96246.69;;;15.76;82.93
25080;BME280;13071;48.868;9.996;2023-08-31T08:20:47;96248.91;;;15.64;79.94
25080;BME280;13071;48.868;9.996;2023-08-31T08:23:13;96240.78;;;15.71;80.73
25080;BME280;13071;48.868;9.996;2023-08-31T08:25:40;96233.59;;;15.89;81.66
25080;BME280;13071;48.868;9.996;2023-08-31T08:28:07;96240.22;;;15.88;81.89
25080;BME280;13071;48.868;9.996;2023-08-31T08:30:33;96251.28;;;16.02;83.26
25080;BME280;13071;48.868;9.996;2023-08-31T08:33:00;96249.72;;;16.01;80.77
25080;BME280;13071;48.868;9.996;2023-08-31T08:35:29;96243.50;;;16.04;79.97
25080;BME280;13071;48.868;9.996;2023-08-31T08:37:55;96248.09;;;15.96;80.85
25080;BME280;13071;48.868;9.996;2023-08-31T08:40:23;96245.69;;;15.88;80.90
25080;BME280;13071;48.868;9.996;2023-08-31T08:42:53;96250.50;;;16.02;80.84
25080;BME280;13071;48.868;9.996;2023-08-31T08:45:20;96248.69;;;16.16;81.64
25080;BME280;13071;48.868;9.996;2023-08-31T08:47:47;96250.06;;;16.36;80.77
25080;BME280;13071;48.868;9.996;2023-08-31T08:50:15;96254.06;;;16.46;80.21
25080;BME280;13071;48.868;9.996;2023-08-31T08:52:44;96241.78;;;16.66;78.68
25080;BME280;13071;48.868;9.996;2023-08-31T08:55:11;96257.25;;;16.52;78.02
25080;BME280;13071;48.868;9.996;2023-08-31T08:57:40;96254.63;;;16.62;77.58
25080;BME280;13071;48.868;9.996;2023-08-31T09:00:07;96259.31;;;16.62;75.91
25080;BME280;13071;48.868;9.996;2023-08-31T09:02:34;96266.41;;;16.73;76.71
25080;BME280;13071;48.868;9.996;2023-08-31T09:05:01;96257.44;;;16.73;76.26
25080;BME280;13071;48.868;9.996;2023-08-31T09:07:29;96265.22;;;16.67;77.01
25080;BME280;13071;48.868;9.996;2023-08-31T09:09:59;96271.94;;;16.80;75.96
25080;BME280;13071;48.868;9.996;2023-08-31T09:12:25;96262.19;;;16.79;76.36
25080;BME280;13071;48.868;9.996;2023-08-31T09:14:59;96269.09;;;16.66;75.47
25080;BME280;13071;48.868;9.996;2023-08-31T09:17:26;96274.38;;;16.93;76.22
25080;BME280;13071;48.868;9.996;2023-08-31T09:19:59;96275.63;;;17.02;74.52
25080;BME280;13071;48.868;9.996;2023-08-31T09:22:28;96274.06;;;17.01;74.75
25080;BME280;13071;48.868;9.996;2023-08-31T09:24:55;96273.34;;;17.11;72.78
25080;BME280;13071;48.868;9.996;2023-08-31T09:27:23;96272.28;;;17.26;72.67
25080;BME280;13071;48.868;9.996;2023-08-31T09:29:50;96271.16;;;17.35;71.70
25080;BME280;13071;48.868;9.996;2023-08-31T09:32:17;96266.69;;;17.09;67.73
25080;BME280;13071;48.868;9.996;2023-08-31T09:34:44;96269.75;;;17.00;70.22
25080;BME280;13071;48.868;9.996;2023-08-31T09:37:11;96280.59;;;16.90;73.51
25080;BME280;13071;48.868;9.996;2023-08-31T09:39:39;96266.41;;;16.70;70.76
25080;BME280;13071;48.868;9.996;2023-08-31T09:42:05;96278.81;;;16.64;69.74
25080;BME280;13071;48.868;9.996;2023-08-31T09:44:34;96278.28;;;16.48;69.81
25080;BME280;13071;48.868;9.996;2023-08-31T09:47:00;96277.97;;;16.56;70.41
25080;BME280;13071;48.868;9.996;2023-08-31T09:49:29;96277.03;;;16.41;70.19
25080;BME280;13071;48.868;9.996;2023-08-31T09:51:56;96286.41;;;16.40;71.68
25080;BME280;13071;48.868;9.996;2023-08-31T09:54:28;96283.91;;;16.28;72.95
25080;BME280;13071;48.868;9.996;2023-08-31T09:56:56;96282.41;;;16.31;72.55
25080;BME280;13071;48.868;9.996;2023-08-31T09:59:23;96277.13;;;16.12;70.03
25080;BME280;13071;48.868;9.996;2023-08-31T10:01:52;96288.38;;;16.07;70.99
25080;BME280;13071;48.868;9.996;2023-08-31T10:04:21;96289.97;;;16.08;70.65
25080;BME280;13071;48.868;9.996;2023-08-31T10:06:49;96291.41;;;15.98;71.26
25080;BME280;13071;48.868;9.996;2023-08-31T10:09:17;96306.56;;;15.95;72.65
25080;BME280;13071;48.868;9.996;2023-08-31T10:11:44;96300.31;;;15.95;73.19
25080;BME280;13071;48.868;9.996;2023-08-31T10:14:10;96314.03;;;15.69;75.07
25080;BME280;13071;48.868;9.996;2023-08-31T10:16:39;96308.44;;;15.88;75.06
25080;BME280;13071;48.868;9.996;2023-08-31T10:19:07;96306.91;;;15.90;74.92
25080;BME280;13071;48.868;9.996;2023-08-31T10:21:34;96302.03;;;16.07;74.32
25080;BME280;13071;48.868;9.996;2023-08-31T10:24:00;96295.22;;;16.27;74.37
25080;BME280;13071;48.868;9.996;2023-08-31T10:26:28;96298.31;;;16.25;76.97
25080;BME280;13071;48.868;9.996;2023-08-31T10:28:56;96291.09;;;16.43;75.15
25080;BME280;13071;48.868;9.996;2023-08-31T10:31:23;96288.22;;;16.66;77.23
25080;BME280;13071;48.868;9.996;2023-08-31T10:33:55;96289.78;;;17.18;72.19
25080;BME280;13071;48.868;9.996;2023-08-31T10:36:35;96280.50;;;16.75;71.35
25080;BME280;13071;48.868;9.996;2023-08-31T10:39:06;96288.63;;;17.19;71.74
25080;BME280;13071;48.868;9.996;2023-08-31T10:41:36;96286.44;;;17.43;69.00
25080;BME280;13071;48.868;9.996;2023-08-31T10:44:17;96291.53;;;17.44;68.73
25080;BME280;13071;48.868;9.996;2023-08-31T10:46:45;96294.88;;;17.16;69.45
25080;BME280;13071;48.868;9.996;2023-08-31T10:49:16;96291.75;;;17.18;70.02
25080;BME280;13071;48.868;9.996;2023-08-31T10:51:46;96292.91;;;17.17;68.37
25080;BME280;13071;48.868;9.996;2023-08-31T10:54:20;96296.13;;;17.30;69.77
25080;BME280;13071;48.868;9.996;2023-08-31T10:57:02;96308.16;;;17.18;67.70
25080;BME280;13071;48.868;9.996;2023-08-31T10:59:47;96303.47;;;17.18;66.75
25080;BME280;13071;48.868;9.996;2023-08-31T11:02:35;96303.88;;;17.20;66.97
25080;BME280;13071;48.868;9.996;2023-08-31T11:05:06;96301.16;;;17.24;66.43
25080;BME280;13071;48.868;9.996;2023-08-31T11:07:36;96306.28;;;17.25;65.56
25080;BME280;13071;48.868;9.996;2023-08-31T11:10:13;96310.88;;;17.18;66.87
25080;BME280;13071;48.868;9.996;2023-08-31T11:12:42;96306.34;;;17.40;67.68
25080;BME280;13071;48.868;9.996;2023-08-31T11:15:11;96303.22;;;17.38;67.04
25080;BME280;13071;48.868;9.996;2023-08-31T11:17:39;96303.63;;;17.43;67.56
25080;BME280;13071;48.868;9.996;2023-08-31T11:20:07;96297.53;;;17.64;66.35
25080;BME280;13071;48.868;9.996;2023-08-31T11:22:40;96298.38;;;17.79;66.70
25080;BME280;13071;48.868;9.996;2023-08-31T11:25:08;96292.63;;;18.05;65.50
25080;BME280;13071;48.868;9.996;2023-08-31T11:27:35;96281.34;;;18.28;63.89
25080;BME280;13071;48.868;9.996;2023-08-31T11:30:03;96281.38;;;18.45;63.57
25080;BME280;13071;48.868;9.996;2023-08-31T11:32:29;96287.63;;;18.35;65.17
25080;BME280;13071;48.868;9.996;2023-08-31T11:34:56;96279.81;;;18.41;63.22
25080;BME280;13071;48.868;9.996;2023-08-31T11:37:23;96289.38;;;17.78;62.39
25080;BME280;13071;48.868;9.996;2023-08-31T11:39:52;96279.00;;;18.40;63.07
25080;BME280;13071;48.868;9.996;2023-08-31T11:42:21;96277.44;;;18.32;57.81
25080;BME280;13071;48.868;9.996;2023-08-31T11:44:48;96281.00;;;18.40;58.86
25080;BME280;13071;48.868;9.996;2023-08-31T11:47:16;96278.91;;;17.94;58.29
25080;BME280;13071;48.868;9.996;2023-08-31T11:49:43;96294.13;;;17.92;59.78
25080;BME280;13071;48.868;9.996;2023-08-31T11:52:11;96293.75;;;17.90;59.97
25080;BME280;13071;48.868;9.996;2023-08-31T11:54:38;96288.31;;;18.07;61.47
25080;BME280;13071;48.868;9.996;2023-08-31T11:57:08;96286.31;;;17.94;61.44
25080;BME280;13071;48.868;9.996;2023-08-31T11:59:36;96292.13;;;17.82;60.47
25080;BME280;13071;48.868;9.996;2023-08-31T12:02:05;96294.13;;;17.92;58.81
25080;BME280;13071;48.868;9.996;2023-08-31T12:04:32;96289.38;;;17.75;59.29
25080;BME280;13071;48.868;9.996;2023-08-31T12:07:01;96293.38;;;17.95;59.17
25080;BME280;13071;48.868;9.996;2023-08-31T12:09:30;96293.72;;;17.86;58.00
25080;BME280;13071;48.868;9.996;2023-08-31T12:11:57;96289.44;;;17.92;60.30
25080;BME280;13071;48.868;9.996;2023-08-31T12:14:27;96302.44;;;18.17;58.59
25080;BME280;13071;48.868;9.996;2023-08-31T12:17:00;96306.75;;;18.10;58.96
25080;BME280;13071;48.868;9.996;2023-08-31T12:19:28;96297.84;;;18.49;58.82
25080;BME280;13071;48.868;9.996;2023-08-31T12:21:56;96297.50;;;18.65;58.99
25080;BME280;13071;48.868;9.996;2023-08-31T12:24:23;96286.53;;;18.72;58.08
25080;BME280;13071;48.868;9.996;2023-08-31T12:26:50;96296.72;;;18.68;56.12
25080;BME280;13071;48.868;9.996;2023-08-31T12:29:19;96294.75;;;18.72;56.03
25080;BME280;13071;48.868;9.996;2023-08-31T12:31:46;96302.97;;;18.72;57.47
25080;BME280;13071;48.868;9.996;2023-08-31T12:34:13;96302.59;;;18.80;58.01
25080;BME280;13071;48.868;9.996;2023-08-31T12:36:40;96306.09;;;18.67;58.25
25080;BME280;13071;48.868;9.996;2023-08-31T12:39:06;96295.53;;;18.58;55.45
25080;BME280;13071;48.868;9.996;2023-08-31T12:41:35;96299.06;;;18.59;56.69
25080;BME280;13071;48.868;9.996;2023-08-31T12:44:02;96291.19;;;18.50;57.56
25080;BME280;13071;48.868;9.996;2023-08-31T12:46:30;96287.34;;;18.79;56.55
25080;BME280;13071;48.868;9.996;2023-08-31T12:48:59;96279.09;;;18.83;55.90
25080;BME280;13071;48.868;9.996;2023-08-31T12:51:26;96292.41;;;18.74;56.71
25080;BME280;13071;48.868;9.996;2023-08-31T12:53:52;96281.03;;;18.61;56.07
25080;BME280;13071;48.868;9.996;2023-08-31T12:56:19;96294.75;;;18.68;56.98
25080;BME280;13071;48.868;9.996;2023-08-31T12:58:48;96287.31;;;18.76;56.22